Time;durP1;ratioP1;P1;durP2;ratioP2;P2;SDS_P1;SDS_P2;PMS_P1;PMS_P2;Temp;Humidity;BMP_temperature;BMP_pressure;BME280_temperature;BME280_humidity;BME280_pressure;Samples;Min_cycle;Max_cycle;Signal;HPM_P1;HPM_P2
2023/09/09 00:01:12;;;;;;;32.28;15.57;;;;;;;18.17;100.00;96737.38;5008451;28;20037;-67
2023/09/09 00:03:37;;;;;;;18.77;13.77;;;;;;;18.15;100.00;96739.78;5020811;28;20499;-66
2023/09/09 00:06:08;;;;;;;20.98;14.63;;;;;;;18.14;100.00;96735.44;5019491;28;20037;-69
2023/09/09 00:08:33;;;;;;;17.45;13.60;;;;;;;18.12;100.00;96733.06;5030516;28;20427;-69
2023/09/09 00:10:59;;;;;;;16.77;13.82;;;;;;;18.09;100.00;96736.66;5033624;28;20041;-66
2023/09/09 00:13:24;;;;;;;16.65;14.00;;;;;;;17.91;100.00;96731.34;5016723;28;20053;-66
2023/09/09 00:15:54;;;;;;;15.85;13.43;;;;;;;17.81;100.00;96734.22;5022618;28;20438;-64
2023/09/09 00:18:19;;;;;;;15.43;13.00;;;;;;;17.73;100.00;96734.28;5015830;28;20052;-68
2023/09/09 00:20:45;;;;;;;15.65;13.27;;;;;;;17.76;100.00;96736.25;5020997;28;20053;-67
2023/09/09 00:23:10;;;;;;;18.60;15.40;;;;;;;17.72;100.00;96734.72;5015886;28;20041;-66
2023/09/09 00:25:36;;;;;;;17.23;13.25;;;;;;;17.64;100.00;96731.22;5020565;28;20064;-64
2023/09/09 00:28:03;;;;;;;19.40;12.70;;;;;;;17.71;100.00;96739.47;5020112;28;20132;-71
2023/09/09 00:30:29;;;;;;;18.35;13.30;;;;;;;17.69;100.00;96735.53;5020102;28;20136;-66
2023/09/09 00:32:57;;;;;;;18.25;14.23;;;;;;;17.67;100.00;96733.19;5021466;28;20085;-67
2023/09/09 00:35:23;;;;;;;18.00;12.93;;;;;;;17.74;100.00;96738.66;5027140;28;20115;-67
2023/09/09 00:37:48;;;;;;;14.05;12.27;;;;;;;17.71;100.00;96733.91;5038144;28;20053;-67
2023/09/09 00:40:13;;;;;;;15.07;12.52;;;;;;;17.67;100.00;96737.94;5027157;28;20095;-67
2023/09/09 00:42:39;;;;;;;18.05;13.80;;;;;;;17.60;100.00;96736.03;5020992;28;20045;-65
2023/09/09 00:45:04;;;;;;;16.02;13.93;;;;;;;17.66;100.00;96736.38;5017381;28;20124;-69
2023/09/09 00:47:31;;;;;;;17.83;14.45;;;;;;;17.80;100.00;96736.19;5020484;28;20511;-66
2023/09/09 00:49:58;;;;;;;15.45;13.77;;;;;;;17.78;100.00;96739.38;5020264;28;20488;-67
2023/09/09 00:52:24;;;;;;;19.20;14.73;;;;;;;17.71;100.00;96739.47;5016141;28;20417;-67
2023/09/09 00:54:50;;;;;;;19.00;14.45;;;;;;;17.50;100.00;96740.50;5019913;28;20570;-65
2023/09/09 00:57:16;;;;;;;16.60;14.00;;;;;;;17.49;100.00;96736.16;5016108;28;20501;-66
2023/09/09 00:59:42;;;;;;;21.05;14.85;;;;;;;17.52;100.00;96738.09;5021801;28;20046;-68
2023/09/09 01:02:08;;;;;;;16.77;12.75;;;;;;;17.53;100.00;96738.88;5019723;28;20063;-67
2023/09/09 01:04:33;;;;;;;17.13;13.88;;;;;;;17.48;100.00;96736.56;5032717;28;20041;-66
2023/09/09 01:07:03;;;;;;;16.45;13.40;;;;;;;17.36;100.00;96735.88;5044187;28;20049;-68
2023/09/09 01:09:33;;;;;;;19.15;14.40;;;;;;;17.29;100.00;96741.50;5034719;28;20057;-66
2023/09/09 01:11:59;;;;;;;17.35;14.73;;;;;;;17.28;100.00;96739.91;5018640;28;20030;-65
2023/09/09 01:14:25;;;;;;;19.17;14.40;;;;;;;17.18;100.00;96738.03;5018537;28;20057;-68
2023/09/09 01:16:52;;;;;;;18.17;14.48;;;;;;;16.99;100.00;96740.16;5017139;28;20506;-63
2023/09/09 01:19:19;;;;;;;17.70;13.93;;;;;;;16.99;100.00;96731.06;5016414;28;20180;-66
2023/09/09 01:21:46;;;;;;;15.43;12.25;;;;;;;17.03;100.00;96739.34;5013346;28;20048;-66
2023/09/09 01:24:16;;;;;;;14.05;11.52;;;;;;;17.07;100.00;96745.63;5015662;28;20095;-65
2023/09/09 01:26:42;;;;;;;16.73;12.20;;;;;;;17.09;100.00;96740.50;5020655;28;20041;-66
2023/09/09 01:29:08;;;;;;;15.68;12.02;;;;;;;17.05;100.00;96743.28;5016157;28;20073;-66
2023/09/09 01:31:33;;;;;;;17.80;12.32;;;;;;;17.09;100.00;96735.75;5020052;28;20564;-68
2023/09/09 01:33:59;;;;;;;14.25;11.90;;;;;;;17.16;100.00;96743.16;5019813;28;20048;-66
2023/09/09 01:36:24;;;;;;;13.75;11.70;;;;;;;17.07;100.00;96742.88;5010588;28;20046;-66
2023/09/09 01:38:50;;;;;;;13.82;11.65;;;;;;;17.15;100.00;96744.38;5022757;28;20057;-68
2023/09/09 01:41:15;;;;;;;14.45;10.88;;;;;;;17.17;100.00;96740.00;5019738;28;20041;-66
2023/09/09 01:43:41;;;;;;;17.05;11.70;;;;;;;17.16;100.00;96745.94;5024192;28;20061;-66
2023/09/09 01:46:06;;;;;;;13.50;11.95;;;;;;;17.22;100.00;96741.56;5018837;28;20044;-66
2023/09/09 01:48:32;;;;;;;14.43;12.00;;;;;;;17.24;100.00;96746.69;5024055;28;20507;-67
2023/09/09 01:50:58;;;;;;;16.00;11.93;;;;;;;17.13;100.00;96741.25;5019981;28;20133;-67
2023/09/09 01:53:23;;;;;;;16.58;13.43;;;;;;;16.95;100.00;96739.41;5014473;28;20651;-66
2023/09/09 01:55:48;;;;;;;16.67;13.65;;;;;;;16.69;100.00;96734.44;5022503;28;20810;-66
2023/09/09 01:58:15;;;;;;;15.65;12.63;;;;;;;16.54;100.00;96739.28;5013800;28;20049;-67
2023/09/09 02:00:41;;;;;;;15.60;13.30;;;;;;;16.59;100.00;96738.88;5015037;28;20052;-65
2023/09/09 02:03:07;;;;;;;15.80;12.75;;;;;;;16.62;100.00;96732.53;5017983;28;20043;-67
2023/09/09 02:05:33;;;;;;;16.30;13.23;;;;;;;16.66;100.00;96733.28;5022950;28;20132;-65
2023/09/09 02:07:59;;;;;;;15.65;12.75;;;;;;;16.62;100.00;96733.31;5023106;28;20041;-66
2023/09/09 02:10:24;;;;;;;14.88;13.27;;;;;;;16.52;100.00;96728.63;5012071;28;20046;-65
2023/09/09 02:12:50;;;;;;;22.65;12.98;;;;;;;16.50;100.00;96733.78;5021888;28;20049;-65
2023/09/09 02:15:15;;;;;;;16.15;13.25;;;;;;;16.42;100.00;96738.56;5013927;28;20045;-67
2023/09/09 02:17:41;;;;;;;18.15;14.07;;;;;;;16.41;100.00;96738.97;5024931;28;20045;-66
2023/09/09 02:20:07;;;;;;;14.35;12.52;;;;;;;16.35;100.00;96735.03;5030385;28;20076;-66
2023/09/09 02:22:32;;;;;;;15.77;12.63;;;;;;;16.34;100.00;96734.28;5023857;28;20419;-66
2023/09/09 02:24:58;;;;;;;14.20;12.70;;;;;;;16.25;100.00;96737.47;5022922;28;20084;-67
2023/09/09 02:27:24;;;;;;;16.35;12.88;;;;;;;16.21;100.00;96725.66;5010169;28;20823;-66
2023/09/09 02:29:49;;;;;;;15.35;12.38;;;;;;;16.34;100.00;96730.72;5022952;28;20037;-66
2023/09/09 02:32:16;;;;;;;70.18;45.78;;;;;;;16.47;100.00;96742.09;5010290;28;20033;-66
2023/09/09 02:34:41;;;;;;;18.98;13.07;;;;;;;16.38;100.00;96732.25;5015090;28;20539;-66
2023/09/09 02:37:11;;;;;;;16.95;11.88;;;;;;;16.25;100.00;96731.16;5018421;28;20041;-66
2023/09/09 02:39:36;;;;;;;12.65;10.85;;;;;;;16.32;100.00;96730.34;5014838;28;20057;-68
2023/09/09 02:42:02;;;;;;;12.63;10.90;;;;;;;16.44;100.00;96730.66;5018835;28;20638;-70
2023/09/09 02:44:27;;;;;;;11.75;10.27;;;;;;;16.53;100.00;96735.75;5015370;28;20041;-66
2023/09/09 02:46:52;;;;;;;12.27;10.82;;;;;;;16.56;100.00;96745.19;5015123;28;20042;-69
2023/09/09 02:49:18;;;;;;;16.95;12.48;;;;;;;16.58;100.00;96738.09;5019268;28;20095;-67
2023/09/09 02:51:44;;;;;;;14.15;11.15;;;;;;;16.57;100.00;96738.50;5023375;28;20503;-66
2023/09/09 02:54:09;;;;;;;13.43;12.00;;;;;;;16.61;100.00;96742.00;5014285;28;20044;-66
2023/09/09 02:56:34;;;;;;;13.00;11.35;;;;;;;16.47;100.00;96740.13;5019195;28;20052;-65
2023/09/09 02:59:00;;;;;;;11.27;10.07;;;;;;;16.32;100.00;96744.94;5016199;28;20071;-66
2023/09/09 03:01:25;;;;;;;13.65;11.18;;;;;;;16.31;100.00;96748.09;5009481;28;20049;-66
2023/09/09 03:03:50;;;;;;;14.52;11.25;;;;;;;16.26;100.00;96741.03;5020972;28;20475;-66
2023/09/09 03:06:16;;;;;;;15.48;12.15;;;;;;;16.34;100.00;96741.78;5011287;28;20515;-65
2023/09/09 03:08:41;;;;;;;15.75;12.88;;;;;;;16.31;100.00;96743.34;5022184;28;20064;-68
2023/09/09 03:11:07;;;;;;;15.18;13.50;;;;;;;16.24;100.00;96746.16;5013944;28;20045;-67
2023/09/09 03:13:32;;;;;;;17.35;14.00;;;;;;;16.11;100.00;96747.81;5018130;28;20041;-67
2023/09/09 03:15:57;;;;;;;15.18;12.77;;;;;;;16.08;100.00;96746.66;5014356;28;20132;-68
2023/09/09 03:18:23;;;;;;;21.65;15.85;;;;;;;16.12;100.00;96741.91;5011444;28;20800;-66
2023/09/09 03:20:48;;;;;;;14.70;11.70;;;;;;;16.18;100.00;96737.50;5014612;28;20045;-68
2023/09/09 03:23:13;;;;;;;16.65;11.98;;;;;;;16.07;100.00;96739.53;5027564;28;20045;-69
2023/09/09 03:25:39;;;;;;;18.23;11.43;;;;;;;15.86;100.00;96746.75;5028473;28;20050;-67
2023/09/09 03:28:04;;;;;;;13.25;11.25;;;;;;;15.75;100.00;96737.69;5009933;28;20056;-68
2023/09/09 03:30:54;;;;;;;13.23;11.80;;;;;;;15.74;100.00;96746.38;5014555;28;20114;-66
2023/09/09 03:33:19;;;;;;;13.90;12.48;;;;;;;15.65;100.00;96747.56;5003856;28;20060;-67
2023/09/09 03:35:45;;;;;;;13.13;11.75;;;;;;;15.81;100.00;96740.81;5021439;28;20049;-66
2023/09/09 03:38:10;;;;;;;16.42;12.18;;;;;;;15.87;100.00;96753.06;5009656;28;20387;-65
2023/09/09 03:40:35;;;;;;;19.35;14.90;;;;;;;15.97;100.00;96743.13;5013880;28;20531;-66
2023/09/09 03:43:01;;;;;;;19.83;13.95;;;;;;;16.04;100.00;96752.19;5020247;28;20060;-66
2023/09/09 03:45:26;;;;;;;15.43;12.65;;;;;;;16.01;100.00;96750.22;5017344;28;20045;-69
2023/09/09 03:47:52;;;;;;;14.15;12.65;;;;;;;15.95;100.00;96753.81;5011095;28;20046;-67
2023/09/09 03:50:17;;;;;;;14.32;12.10;;;;;;;15.77;100.00;96759.38;5013929;28;20129;-67
2023/09/09 03:52:42;;;;;;;17.92;12.98;;;;;;;15.67;100.00;96753.47;5022573;28;20441;-67
2023/09/09 03:55:08;;;;;;;15.25;13.40;;;;;;;15.59;100.00;96757.47;5005056;28;20045;-65
2023/09/09 03:57:33;;;;;;;18.10;13.13;;;;;;;15.50;100.00;96754.28;5011553;28;20046;-66
2023/09/09 03:59:59;;;;;;;14.40;11.98;;;;;;;15.51;100.00;96760.63;5013038;28;20050;-68
2023/09/09 04:02:24;;;;;;;16.30;11.77;;;;;;;15.59;100.00;96754.69;5016114;28;20041;-66
2023/09/09 04:04:49;;;;;;;15.05;12.40;;;;;;;15.51;100.00;96749.59;5013854;28;20156;-68
2023/09/09 04:07:15;;;;;;;13.68;11.40;;;;;;;15.51;100.00;96750.38;5017485;28;20045;-70
2023/09/09 04:09:41;;;;;;;14.30;10.88;;;;;;;15.47;100.00;96753.13;5021719;28;20538;-67
2023/09/09 04:12:09;;;;;;;14.38;10.20;;;;;;;15.42;100.00;96758.28;5017349;28;20168;-67
2023/09/09 04:14:39;;;;;;;11.93;10.55;;;;;;;15.52;100.00;96757.47;5022480;28;20135;-66
2023/09/09 04:17:05;;;;;;;12.35;9.88;;;;;;;15.63;100.00;96755.47;5013844;28;20049;-72
2023/09/09 04:19:31;;;;;;;11.05;9.30;;;;;;;15.70;100.00;96760.19;5016105;28;20052;-65
2023/09/09 04:21:57;;;;;;;11.30;9.65;;;;;;;15.75;100.00;96762.53;5022139;28;20136;-66
2023/09/09 04:24:22;;;;;;;11.43;10.02;;;;;;;15.83;100.00;96760.56;5011188;28;20079;-66
2023/09/09 04:26:47;;;;;;;11.52;10.35;;;;;;;15.85;100.00;96758.19;5022437;28;20041;-67
2023/09/09 04:29:13;;;;;;;12.85;11.38;;;;;;;15.82;100.00;96761.75;5029524;28;20041;-69
2023/09/09 04:31:38;;;;;;;13.60;10.65;;;;;;;15.58;100.00;96764.16;5023551;28;20052;-66
2023/09/09 04:34:03;;;;;;;13.70;10.82;;;;;;;15.42;100.00;96761.81;5009144;28;20447;-70
2023/09/09 04:36:29;;;;;;;14.50;11.25;;;;;;;15.38;100.00;96760.25;5019818;28;20136;-64
2023/09/09 04:38:54;;;;;;;14.60;12.40;;;;;;;15.29;100.00;96766.19;5021249;28;20103;-68
2023/09/09 04:41:20;;;;;;;14.32;12.52;;;;;;;15.18;100.00;96755.16;5016754;28;20068;-69
2023/09/09 04:43:45;;;;;;;14.38;12.45;;;;;;;15.13;100.00;96765.81;5020967;28;20072;-66
2023/09/09 04:46:11;;;;;;;21.35;14.18;;;;;;;14.99;100.00;96770.13;5015968;28;20068;-66
2023/09/09 04:48:37;;;;;;;16.15;12.75;;;;;;;15.07;100.00;96770.91;5021061;28;20106;-65
2023/09/09 04:51:02;;;;;;;15.00;13.40;;;;;;;15.16;100.00;96765.81;5019290;28;20914;-68
2023/09/09 04:53:28;;;;;;;16.67;14.38;;;;;;;15.16;100.00;96768.56;5017745;28;20057;-67
2023/09/09 04:55:53;;;;;;;13.80;12.35;;;;;;;15.19;100.00;96773.25;5013550;28;20056;-69
2023/09/09 04:58:18;;;;;;;15.57;12.95;;;;;;;15.27;100.00;96768.56;5016798;28;20045;-69
2023/09/09 05:00:44;;;;;;;14.05;12.55;;;;;;;15.46;100.00;96764.56;5022148;28;20057;-67
2023/09/09 05:03:09;;;;;;;12.55;10.40;;;;;;;15.64;100.00;96761.75;5013327;28;20042;-67
2023/09/09 05:05:34;;;;;;;12.82;10.23;;;;;;;15.68;100.00;96768.06;5016523;28;20049;-69
2023/09/09 05:08:00;;;;;;;12.23;10.73;;;;;;;15.75;100.00;96770.81;5021520;28;20440;-66
2023/09/09 05:10:27;;;;;;;11.85;10.65;;;;;;;15.88;100.00;96775.91;5003520;28;20052;-67
2023/09/09 05:12:53;;;;;;;11.55;10.35;;;;;;;16.01;100.00;96777.06;5022862;28;20690;-65
2023/09/09 05:15:19;;;;;;;10.70;9.63;;;;;;;16.15;100.00;96776.22;5020313;28;20045;-68
2023/09/09 05:17:44;;;;;;;10.13;9.02;;;;;;;16.48;100.00;96783.16;5024486;28;20046;-68
2023/09/09 05:20:10;;;;;;;11.10;10.00;;;;;;;16.81;100.00;96789.28;5020308;28;20558;-67
2023/09/09 05:22:36;;;;;;;11.57;9.07;;;;;;;17.13;100.00;96780.75;5018312;28;20042;-66
2023/09/09 05:25:02;;;;;;;15.23;9.48;;;;;;;17.55;100.00;96792.63;5014809;28;20038;-69
2023/09/09 05:27:28;;;;;;;9.32;8.32;;;;;;;18.19;100.00;96795.94;5023149;28;20049;-69
2023/09/09 05:29:53;;;;;;;13.48;8.32;;;;;;;18.79;100.00;96792.78;5023603;28;20048;-69
2023/09/09 05:32:19;;;;;;;11.25;7.85;;;;;;;19.48;100.00;96801.59;5015587;28;20061;-68
2023/09/09 05:34:44;;;;;;;8.80;7.20;;;;;;;20.16;100.00;96805.94;5041750;28;20045;-71
2023/09/09 05:37:10;;;;;;;9.65;6.32;;;;;;;20.80;100.00;96811.41;5003195;28;20080;-66
2023/09/09 05:39:35;;;;;;;7.70;6.60;;;;;;;21.37;100.00;96812.84;5020030;28;20053;-69
2023/09/09 05:42:02;;;;;;;8.18;7.20;;;;;;;21.38;100.00;96814.41;5016707;28;20050;-67
2023/09/09 05:44:28;;;;;;;10.25;6.75;;;;;;;21.96;100.00;96807.38;5014030;28;20042;-67
2023/09/09 05:46:54;;;;;;;9.07;7.28;;;;;;;22.44;97.38;96818.84;5025316;28;20038;-66
2023/09/09 05:49:19;;;;;;;12.35;7.45;;;;;;;22.61;93.48;96822.31;5027831;28;20037;-65
2023/09/09 05:51:45;;;;;;;13.20;7.97;;;;;;;23.20;91.14;96817.38;5019114;28;20060;-70
2023/09/09 05:54:10;;;;;;;7.70;6.90;;;;;;;23.76;86.13;96827.09;5009572;28;20046;-69
2023/09/09 05:56:35;;;;;;;9.88;7.03;;;;;;;24.18;81.85;96836.06;5022512;28;20049;-66
2023/09/09 05:59:07;;;;;;;7.70;6.57;;;;;;;24.75;78.43;96830.38;5015592;28;20033;-69
2023/09/09 06:01:32;;;;;;;11.32;6.45;;;;;;;24.86;75.67;96832.00;5024938;28;20183;-69
2023/09/09 06:03:57;;;;;;;10.43;7.53;;;;;;;25.16;71.28;96833.22;5025264;28;20065;-68
2023/09/09 06:06:23;;;;;;;8.77;7.88;;;;;;;24.95;75.17;96830.00;5011633;28;20416;-66
2023/09/09 06:08:48;;;;;;;10.70;8.02;;;;;;;24.87;75.89;96833.56;5007889;28;20459;-69
2023/09/09 06:11:15;;;;;;;14.13;10.32;;;;;;;24.46;79.58;96830.66;5013454;28;20534;-68
2023/09/09 06:13:40;;;;;;;14.25;8.80;;;;;;;24.54;83.08;96834.78;5011502;28;20048;-69
2023/09/09 06:16:05;;;;;;;13.38;8.43;;;;;;;25.77;75.39;96842.00;5023286;28;20045;-69
2023/09/09 06:18:31;;;;;;;13.32;8.18;;;;;;;26.72;68.69;96843.09;5023282;28;20048;-69
2023/09/09 06:20:57;;;;;;;12.57;8.27;;;;;;;27.05;65.80;96840.34;5026152;28;20132;-69
2023/09/09 06:23:26;;;;;;;12.15;8.18;;;;;;;27.54;63.81;96846.13;5021570;28;20049;-68
2023/09/09 06:25:51;;;;;;;12.93;8.90;;;;;;;28.14;60.39;96852.78;5027159;28;20036;-71
2023/09/09 06:28:17;;;;;;;11.20;8.63;;;;;;;28.32;58.11;96851.84;5021285;28;20120;-69
2023/09/09 06:30:43;;;;;;;12.35;8.43;;;;;;;28.82;57.85;96854.84;5026439;28;20041;-67
2023/09/09 06:33:09;;;;;;;13.90;8.57;;;;;;;29.13;56.03;96859.19;5011052;28;20402;-68
2023/09/09 06:35:34;;;;;;;10.18;8.23;;;;;;;29.41;55.83;96862.50;5025641;28;20041;-69
2023/09/09 06:38:00;;;;;;;12.82;8.90;;;;;;;29.76;52.64;96870.22;5022637;28;20037;-68
2023/09/09 06:40:26;;;;;;;19.33;8.98;;;;;;;29.04;54.91;96857.25;5035212;28;20046;-69
2023/09/09 06:42:51;;;;;;;10.40;8.57;;;;;;;29.45;55.92;96862.31;5016426;28;20049;-68
2023/09/09 06:45:17;;;;;;;12.63;9.40;;;;;;;29.96;54.86;96866.63;5028211;28;20057;-69
2023/09/09 06:47:44;;;;;;;13.75;9.40;;;;;;;29.46;55.39;96869.47;5014305;28;20684;-69
2023/09/09 06:50:09;;;;;;;11.13;9.82;;;;;;;28.12;60.68;96863.75;5008887;28;20040;-69
2023/09/09 06:52:38;;;;;;;12.30;9.25;;;;;;;28.32;63.06;96863.13;5015139;28;20471;-68
2023/09/09 06:55:05;;;;;;;13.82;10.52;;;;;;;27.75;65.31;96861.13;5024838;28;20037;-66
2023/09/09 06:57:31;;;;;;;14.43;10.68;;;;;;;27.68;64.47;96858.69;5017552;28;20536;-69
2023/09/09 06:59:56;;;;;;;10.65;9.48;;;;;;;28.08;66.17;96861.09;5007882;28;20045;-69
2023/09/09 07:02:22;;;;;;;18.77;9.98;;;;;;;28.08;63.75;96866.75;5006256;28;20636;-69
2023/09/09 07:04:47;;;;;;;13.38;8.93;;;;;;;28.97;61.46;96864.09;5005766;28;20046;-67
2023/09/09 07:07:13;;;;;;;10.63;9.52;;;;;;;29.36;58.99;96880.13;5014481;28;20113;-70
2023/09/09 07:09:38;;;;;;;15.10;9.90;;;;;;;30.28;55.79;96883.72;5010825;28;20041;-70
2023/09/09 07:12:04;;;;;;;16.27;10.48;;;;;;;30.25;54.97;96885.50;4999175;28;20428;-67
2023/09/09 07:14:29;;;;;;;13.13;10.52;;;;;;;29.10;58.61;96885.53;5011935;28;20085;-70
2023/09/09 07:16:55;;;;;;;10.52;9.43;;;;;;;29.74;57.26;96884.81;5013044;28;20041;-70
2023/09/09 07:19:20;;;;;;;19.48;11.48;;;;;;;27.51;64.55;96878.00;5016634;28;20670;-69
2023/09/09 07:21:45;;;;;;;15.02;12.68;;;;;;;26.45;73.97;96877.59;5016001;28;20113;-71
2023/09/09 07:24:11;;;;;;;17.15;12.20;;;;;;;27.16;69.90;96876.41;5018350;28;20041;-70
2023/09/09 07:26:36;;;;;;;15.13;11.77;;;;;;;27.69;69.84;96877.13;5023760;28;20538;-69
2023/09/09 07:29:01;;;;;;;15.23;12.07;;;;;;;28.89;61.44;96885.47;5019862;28;20073;-69
2023/09/09 07:31:28;;;;;;;16.40;13.13;;;;;;;27.91;65.33;96876.88;4999816;28;20045;-69
2023/09/09 07:33:54;;;;;;;19.00;13.85;;;;;;;26.22;73.96;96876.22;5018491;28;20041;-70
2023/09/09 07:36:20;;;;;;;22.50;16.77;;;;;;;24.84;85.11;96866.06;5018829;28;20037;-70
2023/09/09 07:38:45;;;;;;;17.45;15.63;;;;;;;24.80;87.17;96868.22;5016489;28;20151;-70
2023/09/09 07:41:10;;;;;;;18.23;15.07;;;;;;;26.29;79.87;96870.28;5013664;28;20112;-68
2023/09/09 07:43:36;;;;;;;19.75;13.60;;;;;;;27.10;76.33;96869.88;5024372;28;20045;-68
2023/09/09 07:46:01;;;;;;;17.92;13.93;;;;;;;28.75;64.18;96874.97;5029884;28;20037;-69
2023/09/09 07:48:27;;;;;;;17.25;14.73;;;;;;;27.94;67.56;96873.09;5013280;28;20511;-69
2023/09/09 07:50:54;;;;;;;19.10;13.95;;;;;;;26.48;75.47;96880.25;5013738;28;20056;-69
2023/09/09 07:53:20;;;;;;;17.50;13.82;;;;;;;27.20;74.60;96871.38;5017662;28;20179;-69
2023/09/09 07:55:48;;;;;;;19.98;13.40;;;;;;;28.16;70.18;96878.41;5021149;28;20037;-69
2023/09/09 07:58:14;;;;;;;14.48;12.93;;;;;;;29.19;63.72;96881.88;4998288;28;20107;-68
2023/09/09 08:00:41;;;;;;;21.50;12.93;;;;;;;30.14;57.99;96878.91;5019834;28;20042;-69
2023/09/09 08:03:06;;;;;;;18.75;13.30;;;;;;;30.64;55.63;96890.06;5017279;28;20439;-69
2023/09/09 08:05:32;;;;;;;14.38;12.27;;;;;;;31.90;50.94;96894.22;5022278;28;20045;-70
2023/09/09 08:07:57;;;;;;;18.35;12.23;;;;;;;32.58;48.35;96891.72;5030837;28;20077;-69
2023/09/09 08:10:23;;;;;;;17.30;11.88;;;;;;;32.76;47.95;96893.31;5019994;28;20037;-70
2023/09/09 08:12:48;;;;;;;15.25;12.35;;;;;;;32.12;48.99;96898.47;5022319;28;20051;-69
2023/09/09 08:15:14;;;;;;;15.18;12.27;;;;;;;31.36;51.46;96896.91;5016714;28;20132;-68
2023/09/09 08:17:39;;;;;;;12.73;11.15;;;;;;;31.98;49.43;96900.97;5021766;28;20045;-67
2023/09/09 08:20:07;;;;;;;16.02;13.30;;;;;;;32.13;48.97;96895.13;5016715;28;20045;-70
2023/09/09 08:22:33;;;;;;;17.95;12.50;;;;;;;33.04;46.94;96899.03;5022684;28;20033;-69
2023/09/09 08:24:59;;;;;;;14.25;12.00;;;;;;;32.18;49.51;96902.91;5020386;28;20099;-70
2023/09/09 08:27:24;;;;;;;13.70;11.75;;;;;;;32.60;48.82;96897.66;5018995;28;20041;-69
2023/09/09 08:29:50;;;;;;;16.55;12.18;;;;;;;32.29;48.99;96895.75;5019359;28;20045;-68
2023/09/09 08:32:15;;;;;;;16.35;12.50;;;;;;;32.74;48.00;96898.75;5025669;28;20104;-68
2023/09/09 08:34:41;;;;;;;16.27;11.98;;;;;;;32.36;47.17;96904.53;5029947;28;20061;-68
2023/09/09 08:37:08;;;;;;;19.00;13.35;;;;;;;32.47;48.77;96898.13;5023455;28;20048;-69
2023/09/09 08:39:33;;;;;;;14.02;10.77;;;;;;;30.87;53.84;96891.06;5022778;28;20038;-69
2023/09/09 08:42:09;;;;;;;18.27;11.82;;;;;;;31.80;50.80;96892.84;5020619;28;20104;-67
2023/09/09 08:45:21;;;;;;;15.15;13.57;;;;;;;31.44;52.26;96892.38;5021890;28;20159;-68
2023/09/09 08:47:48;;;;;;;14.77;10.60;;;;;;;33.36;47.23;96898.06;4999447;28;20056;-67
2023/09/09 08:50:16;;;;;;;12.32;10.48;;;;;;;33.78;46.17;96899.84;5026763;28;20091;-69
2023/09/09 08:52:42;;;;;;;14.23;11.05;;;;;;;33.82;45.80;96902.44;5016974;28;20041;-66
2023/09/09 08:55:08;;;;;;;15.57;11.90;;;;;;;30.86;53.31;96890.31;5018340;28;20041;-67
2023/09/09 08:57:33;;;;;;;16.83;13.27;;;;;;;31.99;50.42;96899.66;5021458;28;20042;-68
2023/09/09 09:00:01;;;;;;;15.13;12.82;;;;;;;31.95;50.27;96893.47;5027288;28;20040;-67
2023/09/09 09:02:27;;;;;;;17.25;12.43;;;;;;;31.46;51.25;96903.94;5025562;28;20065;-67
2023/09/09 09:04:54;;;;;;;16.80;14.52;;;;;;;27.07;72.50;96884.88;5029388;28;20183;-68
2023/09/09 09:07:21;;;;;;;16.73;12.40;;;;;;;28.82;68.30;96885.09;5019063;28;20115;-66
2023/09/09 09:09:46;;;;;;;15.93;12.68;;;;;;;30.78;58.25;96899.72;5021887;28;20041;-67
2023/09/09 09:12:13;;;;;;;15.57;13.40;;;;;;;31.17;56.45;96891.63;5005034;28;20045;-67
2023/09/09 09:14:47;;;;;;;17.83;14.57;;;;;;;30.98;56.95;96904.56;5020008;28;20447;-68
2023/09/09 09:17:19;;;;;;;15.50;12.60;;;;;;;30.64;58.77;96896.47;5012907;28;20037;-67
2023/09/09 09:19:44;;;;;;;16.75;14.63;;;;;;;31.18;56.96;96881.84;5016400;28;20041;-69
2023/09/09 09:22:13;;;;;;;16.83;12.82;;;;;;;31.67;54.96;96886.88;5015917;28;20045;-66
2023/09/09 09:24:45;;;;;;;16.65;14.48;;;;;;;31.74;54.44;96886.41;5009539;28;20120;-65
2023/09/09 09:27:14;;;;;;;14.70;12.23;;;;;;;31.79;54.10;96883.59;5009841;28;20096;-68
2023/09/09 09:29:40;;;;;;;;;;;;;;;32.82;51.21;96893.34;5020429;28;20073;-67
2023/09/09 09:32:06;;;;;;;18.48;13.25;;;;;;;32.41;52.71;96882.38;5004152;28;19976;-67
2023/09/09 09:34:33;;;;;;;15.77;12.82;;;;;;;32.73;51.09;96891.50;5019143;28;20502;-66
2023/09/09 09:37:03;;;;;;;15.27;12.73;;;;;;;32.92;50.98;96889.75;5014016;28;20033;-67
2023/09/09 09:39:34;;;;;;;;;;;;;;;32.42;51.83;96889.59;5017957;28;20053;-67
2023/09/09 09:42:01;;;;;;;18.55;13.27;;;;;;;31.89;52.48;96887.03;5021452;28;19964;-67
2023/09/09 09:44:27;;;;;;;17.15;12.32;;;;;;;31.84;53.41;96884.94;5016907;28;20128;-70
2023/09/09 09:47:03;;;;;;;15.23;12.48;;;;;;;31.52;54.19;96882.16;5026671;28;20832;-68
2023/09/09 09:49:36;;;;;;;17.00;13.10;;;;;;;31.16;56.95;96873.09;5013849;28;20068;-66
2023/09/09 09:52:03;;;;;;;12.50;10.77;;;;;;;32.26;54.43;96874.84;5020476;28;20102;-64
2023/09/09 09:54:30;;;;;;;14.05;12.07;;;;;;;32.61;52.55;96878.59;5029771;28;20060;-66
2023/09/09 09:57:02;;;;;;;14.60;11.75;;;;;;;32.16;54.75;96876.34;5015233;28;20037;-66
2023/09/09 09:59:38;;;;;;;18.15;13.90;;;;;;;32.91;51.91;96878.91;5009072;28;20038;-68
2023/09/09 10:02:04;;;;;;;14.23;11.75;;;;;;;32.67;53.13;96873.72;5017763;28;20412;-66
2023/09/09 10:04:40;;;;;;;17.05;13.35;;;;;;;32.80;51.96;96879.66;5013208;28;20029;-67
2023/09/09 10:07:10;;;;;;;15.32;12.63;;;;;;;33.00;51.72;96884.31;5022038;28;20121;-67
2023/09/09 10:09:39;;;;;;;17.58;13.35;;;;;;;33.04;51.17;96882.00;5023405;28;20045;-67
2023/09/09 10:12:13;;;;;;;16.73;14.18;;;;;;;33.09;50.58;96874.78;5016198;28;20050;-65
2023/09/09 10:14:39;;;;;;;16.17;13.30;;;;;;;33.21;50.43;96873.53;5024875;28;20046;-68
2023/09/09 10:17:08;;;;;;;18.70;14.88;;;;;;;32.73;52.00;96872.41;5018870;28;20065;-66
2023/09/09 10:19:37;;;;;;;17.90;14.52;;;;;;;32.39;53.34;96872.34;5025591;28;20495;-69
2023/09/09 10:22:05;;;;;;;17.58;14.27;;;;;;;31.77;56.09;96865.56;5015635;28;20140;-66
2023/09/09 10:24:32;;;;;;;16.08;13.05;;;;;;;32.53;53.67;96862.03;5019870;28;20046;-68
2023/09/09 10:27:03;;;;;;;19.83;14.82;;;;;;;32.42;53.26;96862.03;5013369;28;20048;-68
2023/09/09 10:29:31;;;;;;;16.65;11.70;;;;;;;32.66;53.90;96853.06;5009793;28;20058;-69
2023/09/09 10:32:04;;;;;;;13.20;11.77;;;;;;;32.88;52.78;96852.34;5021938;28;20164;-68
2023/09/09 10:34:36;;;;;;;15.90;12.18;;;;;;;33.20;50.67;96857.03;5015453;28;20067;-70
2023/09/09 10:37:03;;;;;;;14.05;11.98;;;;;;;33.17;51.46;96855.22;5007088;28;20092;-69
2023/09/09 10:39:30;;;;;;;16.13;14.30;;;;;;;32.10;53.81;96852.88;5023442;28;20124;-69
2023/09/09 10:41:57;;;;;;;16.38;11.88;;;;;;;32.48;54.64;96845.78;5017326;28;20049;-69
2023/09/09 10:44:23;;;;;;;16.27;11.60;;;;;;;32.46;53.70;96841.94;5019891;28;20045;-68
2023/09/09 10:46:56;;;;;;;13.23;11.57;;;;;;;31.86;54.68;96833.44;5023260;28;20060;-68
2023/09/09 10:49:26;;;;;;;15.32;12.55;;;;;;;32.42;53.65;96839.34;5019709;28;20185;-66
2023/09/09 10:51:52;;;;;;;16.92;12.85;;;;;;;32.40;53.18;96841.91;5023866;28;20045;-69
2023/09/09 10:54:19;;;;;;;13.77;12.10;;;;;;;31.95;55.20;96834.00;5011531;28;20044;-67
2023/09/09 10:56:49;;;;;;;15.50;11.43;;;;;;;31.82;55.43;96842.94;5013483;28;20041;-67
2023/09/09 10:59:17;;;;;;;14.70;11.65;;;;;;;32.19;55.03;96836.44;5020328;28;20128;-67
2023/09/09 11:01:42;;;;;;;16.50;13.63;;;;;;;31.75;55.58;96839.84;5017292;28;20042;-66
2023/09/09 11:04:21;;;;;;;16.30;12.60;;;;;;;31.61;55.76;96833.81;5020644;28;20037;-67
2023/09/09 11:07:06;;;;;;;14.48;11.13;;;;;;;31.16;58.93;96821.41;5022381;28;20112;-66
2023/09/09 11:09:31;;;;;;;15.93;12.40;;;;;;;31.11;58.36;96824.97;5011945;28;20045;-68
2023/09/09 11:11:57;;;;;;;16.17;12.40;;;;;;;30.76;59.54;96821.06;5023004;28;20049;-66